Terminal Aerodrome Forecast
Issued by NWS

Home | Current Version | Previous Version | Text Only | Print | Product List | Glossary On
Versions: 1 2 3 4 5 6 7 8 9 10 11 12 13 14 15 16
889
FTUS45 KABQ 182352 RRA
TAFTCC
TAF
KTCC 182352Z 1900/1924 24018G25KT P6SM SCT080
     FM190300 25015KT P6SM SCT050
     FM192000 27014G22KT P6SM SCT250=

USA.gov is the U.S. government's official web portal to all federal, state and local government web resources and services.